sensor_id;sensor_type;location;lat;lon;timestamp;P1;durP1;ratioP1;P2;durP2;ratioP2
38248;SDS011;24045;51.138;17.126;2023-05-13T00:11:40;14.20;;;7.60;;
38248;SDS011;24045;51.138;17.126;2023-05-13T00:26:43;16.30;;;7.10;;
38248;SDS011;24045;51.138;17.126;2023-05-13T00:41:46;13.20;;;6.50;;
38248;SDS011;24045;51.138;17.126;2023-05-13T00:56:48;12.30;;;7.70;;
38248;SDS011;24045;51.138;17.126;2023-05-13T01:11:55;13.70;;;7.70;;
38248;SDS011;24045;51.138;17.126;2023-05-13T01:27:07;20.70;;;7.90;;
38248;SDS011;24045;51.138;17.126;2023-05-13T01:42:10;15.20;;;7.80;;
38248;SDS011;24045;51.138;17.126;2023-05-13T01:57:13;12.60;;;7.60;;
38248;SDS011;24045;51.138;17.126;2023-05-13T02:12:16;13.50;;;7.70;;
38248;SDS011;24045;51.138;17.126;2023-05-13T02:27:18;16.20;;;8.70;;
38248;SDS011;24045;51.138;17.126;2023-05-13T02:42:22;13.10;;;7.30;;
38248;SDS011;24045;51.138;17.126;2023-05-13T02:57:25;16.70;;;8.00;;
38248;SDS011;24045;51.138;17.126;2023-05-13T03:12:28;13.40;;;7.90;;
38248;SDS011;24045;51.138;17.126;2023-05-13T03:27:30;14.20;;;8.20;;
38248;SDS011;24045;51.138;17.126;2023-05-13T03:42:33;14.70;;;9.00;;
38248;SDS011;24045;51.138;17.126;2023-05-13T03:57:36;14.20;;;7.30;;
38248;SDS011;24045;51.138;17.126;2023-05-13T04:12:39;11.80;;;6.90;;
38248;SDS011;24045;51.138;17.126;2023-05-13T04:27:42;11.90;;;7.70;;
38248;SDS011;24045;51.138;17.126;2023-05-13T04:42:45;10.00;;;6.80;;
38248;SDS011;24045;51.138;17.126;2023-05-13T04:57:47;13.70;;;7.00;;
38248;SDS011;24045;51.138;17.126;2023-05-13T05:12:50;12.60;;;6.70;;
38248;SDS011;24045;51.138;17.126;2023-05-13T05:27:53;11.70;;;7.10;;
38248;SDS011;24045;51.138;17.126;2023-05-13T05:42:56;13.80;;;7.60;;
38248;SDS011;24045;51.138;17.126;2023-05-13T05:58:01;10.50;;;6.40;;
38248;SDS011;24045;51.138;17.126;2023-05-13T06:13:06;12.20;;;7.80;;
38248;SDS011;24045;51.138;17.126;2023-05-13T06:28:09;12.00;;;5.90;;
38248;SDS011;24045;51.138;17.126;2023-05-13T06:43:13;10.40;;;6.20;;
38248;SDS011;24045;51.138;17.126;2023-05-13T06:58:18;12.60;;;6.50;;
38248;SDS011;24045;51.138;17.126;2023-05-13T07:13:20;13.90;;;6.80;;
38248;SDS011;24045;51.138;17.126;2023-05-13T07:28:23;11.80;;;6.30;;
38248;SDS011;24045;51.138;17.126;2023-05-13T07:43:26;13.30;;;6.30;;
38248;SDS011;24045;51.138;17.126;2023-05-13T07:58:29;10.20;;;6.10;;
38248;SDS011;24045;51.138;17.126;2023-05-13T08:13:32;12.90;;;8.40;;
38248;SDS011;24045;51.138;17.126;2023-05-13T08:28:34;12.40;;;8.50;;
38248;SDS011;24045;51.138;17.126;2023-05-13T08:43:38;9.70;;;6.10;;
38248;SDS011;24045;51.138;17.126;2023-05-13T08:58:45;18.20;;;8.60;;
38248;SDS011;24045;51.138;17.126;2023-05-13T09:13:57;9.30;;;4.90;;
38248;SDS011;24045;51.138;17.126;2023-05-13T09:44:17;9.50;;;5.20;;
38248;SDS011;24045;51.138;17.126;2023-05-13T09:59:19;8.60;;;4.40;;
38248;SDS011;24045;51.138;17.126;2023-05-13T10:14:23;8.10;;;4.50;;
38248;SDS011;24045;51.138;17.126;2023-05-13T10:29:26;7.80;;;3.80;;
38248;SDS011;24045;51.138;17.126;2023-05-13T10:44:31;7.50;;;3.40;;
38248;SDS011;24045;51.138;17.126;2023-05-13T10:59:35;11.90;;;4.70;;
38248;SDS011;24045;51.138;17.126;2023-05-13T11:14:39;8.40;;;4.20;;
38248;SDS011;24045;51.138;17.126;2023-05-13T11:29:51;6.60;;;3.50;;
38248;SDS011;24045;51.138;17.126;2023-05-13T11:44:56;8.40;;;4.10;;
38248;SDS011;24045;51.138;17.126;2023-05-13T12:00:06;7.90;;;3.00;;
38248;SDS011;24045;51.138;17.126;2023-05-13T12:15:15;7.90;;;3.00;;
38248;SDS011;24045;51.138;17.126;2023-05-13T12:30:19;8.40;;;3.40;;
38248;SDS011;24045;51.138;17.126;2023-05-13T12:45:26;9.50;;;3.70;;
38248;SDS011;24045;51.138;17.126;2023-05-13T13:00:33;10.20;;;3.90;;
38248;SDS011;24045;51.138;17.126;2023-05-13T13:15:36;14.40;;;8.80;;
38248;SDS011;24045;51.138;17.126;2023-05-13T13:30:39;7.70;;;4.00;;
38248;SDS011;24045;51.138;17.126;2023-05-13T13:45:51;10.60;;;5.10;;
38248;SDS011;24045;51.138;17.126;2023-05-13T14:00:53;9.50;;;4.10;;
38248;SDS011;24045;51.138;17.126;2023-05-13T14:15:56;10.40;;;6.10;;
38248;SDS011;24045;51.138;17.126;2023-05-13T14:30:59;13.00;;;5.40;;
38248;SDS011;24045;51.138;17.126;2023-05-13T14:46:02;13.80;;;6.00;;
38248;SDS011;24045;51.138;17.126;2023-05-13T15:01:05;9.50;;;4.60;;
38248;SDS011;24045;51.138;17.126;2023-05-13T15:16:07;8.80;;;4.60;;
38248;SDS011;24045;51.138;17.126;2023-05-13T15:31:10;13.00;;;6.80;;
38248;SDS011;24045;51.138;17.126;2023-05-13T15:46:13;14.30;;;6.90;;
38248;SDS011;24045;51.138;17.126;2023-05-13T16:01:16;14.50;;;9.00;;
38248;SDS011;24045;51.138;17.126;2023-05-13T16:16:19;10.70;;;5.10;;
38248;SDS011;24045;51.138;17.126;2023-05-13T16:31:24;7.70;;;3.40;;
38248;SDS011;24045;51.138;17.126;2023-05-13T16:46:28;7.90;;;3.20;;
38248;SDS011;24045;51.138;17.126;2023-05-13T17:01:31;13.80;;;8.00;;
38248;SDS011;24045;51.138;17.126;2023-05-13T17:16:34;9.70;;;5.00;;
38248;SDS011;24045;51.138;17.126;2023-05-13T17:31:38;8.70;;;4.70;;
38248;SDS011;24045;51.138;17.126;2023-05-13T17:46:41;10.30;;;5.30;;
38248;SDS011;24045;51.138;17.126;2023-05-13T18:01:44;14.90;;;7.50;;
38248;SDS011;24045;51.138;17.126;2023-05-13T18:16:47;13.80;;;9.10;;
38248;SDS011;24045;51.138;17.126;2023-05-13T18:31:50;16.70;;;7.60;;
38248;SDS011;24045;51.138;17.126;2023-05-13T18:46:52;13.40;;;8.30;;
38248;SDS011;24045;51.138;17.126;2023-05-13T19:01:56;14.10;;;8.20;;
38248;SDS011;24045;51.138;17.126;2023-05-13T19:17:00;17.20;;;10.40;;
38248;SDS011;24045;51.138;17.126;2023-05-13T19:32:04;21.70;;;12.70;;
38248;SDS011;24045;51.138;17.126;2023-05-13T19:47:07;29.90;;;18.00;;
38248;SDS011;24045;51.138;17.126;2023-05-13T20:17:15;21.40;;;13.80;;
38248;SDS011;24045;51.138;17.126;2023-05-13T20:32:19;18.70;;;12.40;;
38248;SDS011;24045;51.138;17.126;2023-05-13T20:47:26;24.90;;;15.00;;
38248;SDS011;24045;51.138;17.126;2023-05-13T21:02:29;19.30;;;11.90;;
38248;SDS011;24045;51.138;17.126;2023-05-13T21:17:32;20.90;;;13.50;;
38248;SDS011;24045;51.138;17.126;2023-05-13T21:32:35;21.50;;;12.20;;
38248;SDS011;24045;51.138;17.126;2023-05-13T21:47:38;16.90;;;11.20;;
38248;SDS011;24045;51.138;17.126;2023-05-13T22:02:41;16.50;;;10.30;;
38248;SDS011;24045;51.138;17.126;2023-05-13T22:17:44;15.90;;;10.50;;
38248;SDS011;24045;51.138;17.126;2023-05-13T22:32:47;18.20;;;11.90;;
38248;SDS011;24045;51.138;17.126;2023-05-13T22:47:51;16.00;;;10.90;;
38248;SDS011;24045;51.138;17.126;2023-05-13T23:17:58;18.40;;;11.30;;
38248;SDS011;24045;51.138;17.126;2023-05-13T23:33:01;20.40;;;12.90;;
38248;SDS011;24045;51.138;17.126;2023-05-13T23:48:04;19.50;;;12.50;;
